Time,TemperatureF,DewpointF,PressureIn,WindDirection,WindDirectionDegrees,WindSpeedMPH,WindSpeedGustMPH,Humidity,HourlyPrecipIn,Conditions,Clouds,dailyrainin,SoftwareType,DateUTC
2013-01-12 00:00:00,67.1,55.4,18.32,South,183,5.8,5.8,66,0.00,,,0.00,VWS V14.00,2013-01-12 05:00:00,
2013-01-12 00:01:00,67.1,55.4,18.32,SSW,212,4.5,5.8,66,0.00,,,0.00,VWS V14.00,2013-01-12 05:01:00,
2013-01-12 00:03:00,67.1,55.4,18.32,South,174,0.0,3.1,66,0.00,,,0.00,VWS V14.00,2013-01-12 05:03:00,
2013-01-12 00:08:00,67.1,55.4,18.32,South,183,2.7,3.1,66,0.00,,,0.00,VWS V14.00,2013-01-12 05:08:00,
2013-01-12 00:13:00,66.9,55.2,18.32,SSW,213,0.0,3.1,66,0.00,,,0.00,VWS V14.00,2013-01-12 05:13:00,
2013-01-12 00:18:00,66.9,55.2,18.32,South,189,0.0,0.0,66,0.00,,,0.00,VWS V14.00,2013-01-12 05:18:00,
2013-01-12 00:23:00,66.7,55.0,18.32,South,176,0.0,4.9,66,0.00,,,0.00,VWS V14.00,2013-01-12 05:23:00,
2013-01-12 00:28:00,66.6,55.3,18.32,South,186,2.7,2.7,67,0.00,,,0.00,VWS V14.00,2013-01-12 05:28:00,
2013-01-12 00:33:00,66.6,55.3,18.32,SSE,168,0.0,4.9,67,0.00,,,0.00,VWS V14.00,2013-01-12 05:33:00,
2013-01-12 00:38:00,66.4,55.1,18.32,South,169,0.0,0.0,67,0.00,,,0.00,VWS V14.00,2013-01-12 05:38:00,
2013-01-12 00:44:00,66.2,55.3,18.32,SSE,168,0.0,4.0,68,0.00,,,0.00,VWS V14.00,2013-01-12 05:44:00,
2013-01-12 00:49:00,66.0,55.2,18.32,SSE,168,0.0,0.0,68,0.00,,,0.00,VWS V14.00,2013-01-12 05:49:00,
2013-01-12 00:54:00,65.8,55.4,18.32,SSE,168,0.0,0.0,69,0.00,,,0.00,VWS V14.00,2013-01-12 05:54:00,
2013-01-12 00:59:00,65.7,55.2,18.32,SSE,168,0.0,0.0,69,0.00,,,0.00,VWS V14.00,2013-01-12 05:59:00,
2013-01-12 01:04:00,65.5,55.0,18.32,SSE,168,0.0,0.0,69,0.00,,,0.00,VWS V14.00,2013-01-12 06:04:00,
2013-01-12 01:09:00,65.5,55.5,18.32,SSE,168,0.0,0.0,70,0.00,,,0.00,VWS V14.00,2013-01-12 06:09:00,
2013-01-12 01:14:00,65.3,55.7,18.32,SSE,168,0.0,0.0,71,0.00,,,0.00,VWS V14.00,2013-01-12 06:14:00,
2013-01-12 01:19:00,65.1,55.5,18.32,SSE,168,0.0,0.0,71,0.00,,,0.00,VWS V14.00,2013-01-12 06:19:00,
2013-01-12 01:24:00,65.1,55.5,18.32,SSE,168,0.0,0.0,71,0.00,,,0.00,VWS V14.00,2013-01-12 06:24:00,
2013-01-12 01:29:00,65.1,55.9,18.32,SSE,168,0.0,0.0,72,0.00,,,0.00,VWS V14.00,2013-01-12 06:29:00,
2013-01-12 01:34:00,64.9,56.1,18.32,SSE,168,0.0,0.0,73,0.00,,,0.00,VWS V14.00,2013-01-12 06:34:00,
2013-01-12 01:40:00,64.8,55.9,18.32,SSE,168,0.0,0.0,73,0.00,,,0.00,VWS V14.00,2013-01-12 06:40:00,
2013-01-12 01:45:00,64.6,56.1,18.32,SSE,168,0.0,0.0,74,0.00,,,0.00,VWS V14.00,2013-01-12 06:45:00,
2013-01-12 01:50:00,64.2,55.8,18.32,SSE,168,0.0,0.0,74,0.00,,,0.00,VWS V14.00,2013-01-12 06:50:00,
2013-01-12 01:55:00,64.0,55.6,18.32,SSE,168,0.0,0.0,74,0.00,,,0.00,VWS V14.00,2013-01-12 06:55:00,
2013-01-12 02:00:00,63.9,55.4,18.32,SSE,168,0.0,0.0,74,0.00,,,0.00,VWS V14.00,2013-01-12 07:00:00,
2013-01-12 02:05:00,63.7,55.2,18.32,SSE,168,0.0,0.0,74,0.00,,,0.00,VWS V14.00,2013-01-12 07:05:00,
2013-01-12 02:10:00,63.5,55.1,18.32,SSE,168,0.0,0.0,74,0.00,,,0.00,VWS V14.00,2013-01-12 07:10:00,
2013-01-12 02:15:00,63.3,55.3,18.32,SSE,168,0.0,0.0,75,0.00,,,0.00,VWS V14.00,2013-01-12 07:15:00,
2013-01-12 02:20:00,63.1,55.5,18.32,SSE,168,0.0,0.0,76,0.00,,,0.00,VWS V14.00,2013-01-12 07:20:00,
2013-01-12 02:25:00,63.0,56.0,18.32,SSE,168,0.0,0.0,78,0.00,,,0.00,VWS V14.00,2013-01-12 07:25:00,
2013-01-12 02:30:00,62.8,55.8,18.32,SSE,167,0.0,0.0,78,0.00,,,0.00,VWS V14.00,2013-01-12 07:30:00,
2013-01-12 02:35:00,62.6,55.7,18.32,SSE,168,0.0,0.0,78,0.00,,,0.00,VWS V14.00,2013-01-12 07:35:00,
2013-01-12 02:41:00,62.2,55.7,18.32,SSE,168,0.0,0.0,79,0.00,,,0.00,VWS V14.00,2013-01-12 07:41:00,
2013-01-12 02:46:00,62.1,55.5,18.32,SSE,168,0.0,0.0,79,0.00,,,0.00,VWS V14.00,2013-01-12 07:46:00,
2013-01-12 02:51:00,61.9,55.3,18.32,SSE,168,0.0,0.0,79,0.00,,,0.00,VWS V14.00,2013-01-12 07:51:00,
2013-01-12 02:56:00,61.9,55.3,18.32,SSE,168,0.0,0.0,79,0.00,,,0.00,VWS V14.00,2013-01-12 07:56:00,
2013-01-12 03:01:00,61.7,55.5,18.32,SSE,168,0.0,0.0,80,0.00,,,0.00,VWS V14.00,2013-01-12 08:01:00,
2013-01-12 03:06:00,61.9,56.0,18.32,SSE,168,0.0,0.0,81,0.00,,,0.00,VWS V14.00,2013-01-12 08:06:00,
2013-01-12 03:11:00,62.1,56.2,18.32,SSE,168,0.0,0.0,81,0.00,,,0.00,VWS V14.00,2013-01-12 08:11:00,
2013-01-12 03:16:00,61.9,56.0,18.32,SSE,168,0.0,0.0,81,0.00,,,0.00,VWS V14.00,2013-01-12 08:16:00,
2013-01-12 03:21:00,61.9,56.3,18.32,SSE,168,0.0,0.0,82,0.00,,,0.00,VWS V14.00,2013-01-12 08:21:00,
2013-01-12 03:26:00,62.2,57.0,18.32,SSE,168,0.0,2.2,83,0.00,,,0.00,VWS V14.00,2013-01-12 08:26:00,
2013-01-12 03:31:00,62.1,57.2,18.32,SSE,168,0.0,0.0,84,0.00,,,0.00,VWS V14.00,2013-01-12 08:31:00,
2013-01-12 03:36:00,62.1,57.2,18.32,SSE,168,0.0,0.0,84,0.00,,,0.00,VWS V14.00,2013-01-12 08:36:00,
2013-01-12 03:41:00,61.9,57.3,18.32,SSE,168,2.2,2.7,85,0.00,,,0.00,VWS V14.00,2013-01-12 08:41:00,
2013-01-12 03:46:00,61.9,57.3,18.32,SSE,168,0.0,0.0,85,0.00,,,0.00,VWS V14.00,2013-01-12 08:46:00,
2013-01-12 03:52:00,61.7,57.2,18.32,SSE,168,0.0,0.0,85,0.00,,,0.00,VWS V14.00,2013-01-12 08:52:00,
2013-01-12 03:57:00,61.5,57.0,18.32,SSE,168,0.0,0.0,85,0.00,,,0.00,VWS V14.00,2013-01-12 08:57:00,
2013-01-12 04:02:00,61.3,56.8,18.32,SSE,168,0.0,0.0,85,0.00,,,0.00,VWS V14.00,2013-01-12 09:02:00,
2013-01-12 04:07:00,61.2,56.6,18.32,SSE,168,0.0,0.0,85,0.00,,,0.00,VWS V14.00,2013-01-12 09:07:00,
2013-01-12 04:12:00,61.3,56.8,18.32,SSE,168,0.0,0.0,85,0.00,,,0.00,VWS V14.00,2013-01-12 09:12:00,
2013-01-12 04:17:00,61.3,57.1,18.32,SSE,168,0.0,0.0,86,0.00,,,0.00,VWS V14.00,2013-01-12 09:17:00,
2013-01-12 04:22:00,61.3,57.1,18.32,SSE,168,0.0,0.0,86,0.00,,,0.00,VWS V14.00,2013-01-12 09:22:00,
2013-01-12 04:27:00,61.2,57.0,18.32,SSE,168,0.0,0.0,86,0.00,,,0.00,VWS V14.00,2013-01-12 09:27:00,
2013-01-12 04:32:00,61.3,57.4,18.32,SSE,168,0.0,0.0,87,0.00,,,0.00,VWS V14.00,2013-01-12 09:32:00,
2013-01-12 04:37:00,61.2,57.3,18.32,SSE,168,0.0,0.0,87,0.00,,,0.00,VWS V14.00,2013-01-12 09:37:00,
2013-01-12 04:42:00,61.0,57.1,18.32,SSE,168,0.0,0.0,87,0.00,,,0.00,VWS V14.00,2013-01-12 09:42:00,
2013-01-12 04:47:00,60.8,56.9,18.32,SSE,168,0.0,0.0,87,0.00,,,0.00,VWS V14.00,2013-01-12 09:47:00,
2013-01-12 04:52:00,60.6,56.7,18.32,SSE,168,0.0,0.0,87,0.00,,,0.00,VWS V14.00,2013-01-12 09:52:00,
2013-01-12 04:58:00,60.3,56.4,18.32,SSE,167,0.0,0.0,87,0.00,,,0.00,VWS V14.00,2013-01-12 09:58:00,
2013-01-12 05:03:00,60.3,56.4,18.32,SSE,168,0.0,0.0,87,0.00,,,0.00,VWS V14.00,2013-01-12 10:03:00,
2013-01-12 05:08:00,60.1,56.2,18.32,SSE,168,0.0,0.0,87,0.00,,,0.00,VWS V14.00,2013-01-12 10:08:00,
2013-01-12 05:13:00,60.1,56.2,18.32,SSE,168,0.0,0.0,87,0.00,,,0.00,VWS V14.00,2013-01-12 10:13:00,
2013-01-12 05:18:00,60.3,56.7,18.32,SSE,168,0.0,0.0,88,0.00,,,0.00,VWS V14.00,2013-01-12 10:18:00,
2013-01-12 05:23:00,60.4,56.9,18.32,SSE,168,0.0,0.0,88,0.00,,,0.00,VWS V14.00,2013-01-12 10:23:00,
2013-01-12 05:28:00,60.3,56.7,18.32,SSE,168,0.0,0.0,88,0.00,,,0.00,VWS V14.00,2013-01-12 10:28:00,
2013-01-12 05:33:00,60.1,56.5,18.32,SSE,168,0.0,0.0,88,0.00,,,0.00,VWS V14.00,2013-01-12 10:33:00,
2013-01-12 05:38:00,60.1,56.5,18.32,SSE,168,0.0,0.0,88,0.00,,,0.00,VWS V14.00,2013-01-12 10:38:00,
2013-01-12 05:43:00,59.9,56.3,18.32,SSE,168,0.0,0.0,88,0.00,,,0.00,VWS V14.00,2013-01-12 10:43:00,
2013-01-12 05:49:00,59.5,56.0,18.32,SSE,168,0.0,0.0,88,0.00,,,0.00,VWS V14.00,2013-01-12 10:49:00,
2013-01-12 05:54:00,59.5,56.0,18.32,SSE,168,0.0,0.0,88,0.00,,,0.00,VWS V14.00,2013-01-12 10:54:00,
2013-01-12 05:59:00,59.5,56.3,18.32,SSE,168,0.0,0.0,89,0.00,,,0.00,VWS V14.00,2013-01-12 10:59:00,
2013-01-12 06:04:00,59.5,56.3,18.32,SSE,168,0.0,0.0,89,0.00,,,0.00,VWS V14.00,2013-01-12 11:04:00,
2013-01-12 06:09:00,59.5,56.3,18.32,SSE,167,0.0,0.0,89,0.00,,,0.00,VWS V14.00,2013-01-12 11:09:00,
2013-01-12 06:14:00,59.5,56.3,18.32,SSE,168,0.0,0.0,89,0.00,,,0.00,VWS V14.00,2013-01-12 11:14:00,
2013-01-12 06:19:00,59.0,55.8,18.32,SSE,168,0.0,0.0,89,0.00,,,0.00,VWS V14.00,2013-01-12 11:19:00,
2013-01-12 06:24:00,59.2,56.0,18.32,SSE,168,0.0,0.0,89,0.00,,,0.00,VWS V14.00,2013-01-12 11:24:00,
2013-01-12 06:29:00,59.2,56.2,18.32,SSE,168,0.0,0.0,90,0.00,,,0.00,VWS V14.00,2013-01-12 11:29:00,
2013-01-12 06:34:00,58.8,55.9,18.32,SSE,168,0.0,0.0,90,0.00,,,0.00,VWS V14.00,2013-01-12 11:34:00,
2013-01-12 06:39:00,58.6,55.7,18.32,SSE,168,0.0,0.0,90,0.00,,,0.00,VWS V14.00,2013-01-12 11:39:00,
2013-01-12 06:44:00,58.8,55.9,18.32,SSE,168,0.0,0.0,90,0.00,,,0.00,VWS V14.00,2013-01-12 11:44:00,
2013-01-12 06:49:00,59.2,56.2,18.32,SSE,168,0.0,0.0,90,0.00,,,0.00,VWS V14.00,2013-01-12 11:49:00,
2013-01-12 06:54:00,59.2,56.2,18.32,SSE,168,0.0,0.0,90,0.00,,,0.00,VWS V14.00,2013-01-12 11:54:00,
2013-01-12 07:00:00,59.0,56.1,18.32,SSE,168,0.0,0.0,90,0.00,,,0.00,VWS V14.00,2013-01-12 12:00:00,
2013-01-12 07:05:00,59.0,56.1,18.32,SSE,168,0.0,0.0,90,0.00,,,0.00,VWS V14.00,2013-01-12 12:05:00,
2013-01-12 07:10:00,59.2,56.2,18.32,SSE,168,0.0,0.0,90,0.00,,,0.00,VWS V14.00,2013-01-12 12:10:00,
2013-01-12 07:15:00,59.4,56.4,18.32,SSE,168,0.0,0.0,90,0.00,,,0.00,VWS V14.00,2013-01-12 12:15:00,
2013-01-12 07:20:00,59.5,56.9,18.32,SSE,168,0.0,0.0,91,0.00,,,0.00,VWS V14.00,2013-01-12 12:20:00,
2013-01-12 07:25:00,59.7,57.1,18.32,SSE,168,0.0,0.0,91,0.00,,,0.00,VWS V14.00,2013-01-12 12:25:00,
2013-01-12 07:30:00,59.4,56.4,18.32,SSE,168,0.0,0.0,90,0.00,,,0.00,VWS V14.00,2013-01-12 12:30:00,
2013-01-12 07:35:00,59.4,56.4,18.32,SSE,168,0.0,0.0,90,0.00,,,0.00,VWS V14.00,2013-01-12 12:35:00,
2013-01-12 07:40:00,59.5,56.6,18.32,SSE,168,0.0,0.0,90,0.00,,,0.00,VWS V14.00,2013-01-12 12:40:00,
2013-01-12 07:45:00,59.7,57.1,18.32,SSE,168,0.0,0.0,91,0.00,,,0.00,VWS V14.00,2013-01-12 12:45:00,
2013-01-12 07:50:00,59.5,56.9,18.32,SSE,168,0.0,0.0,91,0.00,,,0.00,VWS V14.00,2013-01-12 12:50:00,
2013-01-12 07:55:00,59.7,57.1,18.32,SSE,168,0.0,0.0,91,0.00,,,0.00,VWS V14.00,2013-01-12 12:55:00,
2013-01-12 08:00:00,59.9,57.3,18.32,SSE,167,0.0,0.0,91,0.00,,,0.00,VWS V14.00,2013-01-12 13:00:00,
2013-01-12 08:05:00,59.9,57.3,18.32,SSE,167,0.0,0.0,91,0.00,,,0.00,VWS V14.00,2013-01-12 13:05:00,
2013-01-12 08:11:00,60.1,57.5,18.32,SSE,168,0.0,0.0,91,0.00,,,0.00,VWS V14.00,2013-01-12 13:11:00,
2013-01-12 08:16:00,60.3,57.6,18.32,SSE,168,0.0,0.0,91,0.00,,,0.00,VWS V14.00,2013-01-12 13:16:00,
2013-01-12 08:21:00,60.6,58.0,18.32,SSE,168,0.0,0.0,91,0.00,,,0.00,VWS V14.00,2013-01-12 13:21:00,
2013-01-12 08:26:00,61.0,58.3,18.32,SSE,168,0.0,0.0,91,0.00,,,0.00,VWS V14.00,2013-01-12 13:26:00,
2013-01-12 08:31:00,61.5,58.9,18.32,SSE,168,0.0,0.0,91,0.00,,,0.00,VWS V14.00,2013-01-12 13:31:00,
2013-01-12 08:36:00,61.7,59.0,18.32,SSE,167,0.0,0.0,91,0.00,,,0.00,VWS V14.00,2013-01-12 13:36:00,
2013-01-12 08:41:00,62.1,59.4,18.32,SSE,168,0.0,0.0,91,0.00,,,0.00,VWS V14.00,2013-01-12 13:41:00,
2013-01-12 08:46:00,62.4,59.8,18.32,SSE,168,0.0,0.0,91,0.00,,,0.00,VWS V14.00,2013-01-12 13:46:00,
2013-01-12 08:51:00,62.6,59.9,18.32,SSE,168,0.0,0.0,91,0.00,,,0.00,VWS V14.00,2013-01-12 13:51:00,
2013-01-12 08:56:00,63.0,60.3,18.32,SSE,168,0.0,0.0,91,0.00,,,0.00,VWS V14.00,2013-01-12 13:56:00,
2013-01-12 09:01:00,63.0,60.3,18.32,SSE,168,0.0,0.0,91,0.00,,,0.00,VWS V14.00,2013-01-12 14:01:00,
2013-01-12 09:06:00,63.1,60.2,18.32,SSE,168,0.0,0.0,90,0.00,,,0.00,VWS V14.00,2013-01-12 14:06:00,
2013-01-12 09:12:00,63.5,60.5,18.32,SSE,167,0.0,0.0,90,0.00,,,0.00,VWS V14.00,2013-01-12 14:12:00,
2013-01-12 09:17:00,63.5,60.5,18.32,South,178,0.0,2.7,90,0.00,,,0.00,VWS V14.00,2013-01-12 14:17:00,
2013-01-12 09:22:00,63.5,59.9,18.32,SSW,202,0.0,3.1,88,0.00,,,0.00,VWS V14.00,2013-01-12 14:22:00,
2013-01-12 09:27:00,64.0,60.1,18.32,SW,233,0.0,0.0,87,0.00,,,0.00,VWS V14.00,2013-01-12 14:27:00,
2013-01-12 09:32:00,64.4,59.8,18.32,SSW,204,3.1,3.1,85,0.00,,,0.00,VWS V14.00,2013-01-12 14:32:00,
2013-01-12 09:37:00,64.4,58.8,18.32,SW,224,2.7,2.7,82,0.00,,,0.00,VWS V14.00,2013-01-12 14:37:00,
2013-01-12 09:42:00,64.8,58.1,18.32,SW,220,0.0,0.0,79,0.00,,,0.00,VWS V14.00,2013-01-12 14:42:00,
2013-01-12 09:47:00,65.1,58.1,18.32,SW,226,0.0,3.1,78,0.00,,,0.00,VWS V14.00,2013-01-12 14:47:00,
2013-01-12 09:52:00,65.1,55.9,18.32,South,189,0.0,0.0,72,0.00,,,0.00,VWS V14.00,2013-01-12 14:52:00,
2013-01-12 09:57:00,65.5,56.2,18.32,SSE,167,0.0,2.2,72,0.00,,,0.00,VWS V14.00,2013-01-12 14:57:00,
2013-01-12 10:02:00,65.7,55.6,18.32,SW,220,2.2,2.7,70,0.00,,,0.00,VWS V14.00,2013-01-12 15:02:00,
2013-01-12 10:07:00,65.7,55.2,18.32,SW,220,0.0,2.7,69,0.00,,,0.00,VWS V14.00,2013-01-12 15:07:00,
2013-01-12 10:12:00,65.7,54.8,18.32,SSW,205,0.0,0.0,68,0.00,,,0.00,VWS V14.00,2013-01-12 15:12:00,
2013-01-12 10:17:00,65.5,53.8,18.32,SW,215,4.0,5.4,66,0.00,,,0.00,VWS V14.00,2013-01-12 15:17:00,
2013-01-12 10:22:00,65.5,54.2,18.32,SE,136,0.0,2.7,67,0.00,,,0.00,VWS V14.00,2013-01-12 15:22:00,
2013-01-12 10:27:00,65.5,54.2,18.32,SW,228,2.2,2.2,67,0.00,,,0.00,VWS V14.00,2013-01-12 15:27:00,
2013-01-12 10:33:00,65.8,55.0,18.32,SSW,213,2.7,4.0,68,0.00,,,0.00,VWS V14.00,2013-01-12 15:33:00,
2013-01-12 10:38:00,66.0,54.3,18.32,SSW,213,0.0,3.1,66,0.00,,,0.00,VWS V14.00,2013-01-12 15:38:00,
2013-01-12 10:43:00,66.6,54.4,18.32,SSW,211,3.1,4.9,65,0.00,,,0.00,VWS V14.00,2013-01-12 15:43:00,
2013-01-12 10:48:00,67.1,55.0,18.32,SSE,156,2.2,2.2,65,0.00,,,0.00,VWS V14.00,2013-01-12 15:48:00,
2013-01-12 10:53:00,67.3,53.4,18.32,SW,224,2.7,5.8,61,0.00,,,0.00,VWS V14.00,2013-01-12 15:53:00,
2013-01-12 10:58:00,67.6,53.7,18.32,SSE,167,2.7,2.7,61,0.00,,,0.00,VWS V14.00,2013-01-12 15:58:00,
2013-01-12 11:03:00,68.5,52.7,18.32,West,269,3.6,5.8,57,0.00,,,0.00,VWS V14.00,2013-01-12 16:03:00,
2013-01-12 11:08:00,69.3,51.4,18.32,WSW,248,0.0,3.1,53,0.00,,,0.00,VWS V14.00,2013-01-12 16:08:00,
2013-01-12 11:13:00,69.8,51.4,18.32,SSW,208,0.0,3.6,52,0.00,,,0.00,VWS V14.00,2013-01-12 16:13:00,
2013-01-12 11:18:00,70.7,49.5,18.32,WSW,246,3.6,6.7,47,0.00,,,0.00,VWS V14.00,2013-01-12 16:18:00,
2013-01-12 11:23:00,71.6,47.3,18.32,WSW,246,2.2,5.8,42,0.00,,,0.00,VWS V14.00,2013-01-12 16:23:00,
2013-01-12 11:28:00,72.5,44.1,18.32,WSW,243,4.0,8.1,36,0.00,,,0.00,VWS V14.00,2013-01-12 16:28:00,
2013-01-12 11:33:00,73.0,44.5,18.32,West,268,3.6,7.6,36,0.00,,,0.00,VWS V14.00,2013-01-12 16:33:00,
2013-01-12 11:38:00,73.6,44.3,18.32,SSW,212,3.6,5.8,35,0.00,,,0.00,VWS V14.00,2013-01-12 16:38:00,
2013-01-12 11:44:00,73.6,43.5,18.32,SSW,209,4.9,5.8,34,0.00,,,0.00,VWS V14.00,2013-01-12 16:44:00,
2013-01-12 11:49:00,73.8,43.7,18.32,SW,233,2.7,3.6,34,0.00,,,0.00,VWS V14.00,2013-01-12 16:49:00,
2013-01-12 11:54:00,74.3,43.4,18.32,South,188,2.7,6.7,33,0.00,,,0.00,VWS V14.00,2013-01-12 16:54:00,
2013-01-12 11:59:00,75.0,44.0,18.32,WSW,243,2.7,3.6,33,0.00,,,0.00,VWS V14.00,2013-01-12 16:59:00,
2013-01-12 12:04:00,75.4,43.5,18.32,WSW,253,4.0,4.0,32,0.00,,,0.00,VWS V14.00,2013-01-12 17:04:00,
2013-01-12 12:09:00,76.1,44.1,18.32,SSW,204,3.6,4.0,32,0.00,,,0.00,VWS V14.00,2013-01-12 17:09:00,
2013-01-12 12:14:00,76.3,43.5,18.32,SW,221,2.7,7.6,31,0.00,,,0.00,VWS V14.00,2013-01-12 17:14:00,
2013-01-12 12:19:00,76.5,41.9,18.32,WSW,251,2.2,8.1,29,0.00,,,0.00,VWS V14.00,2013-01-12 17:19:00,
2013-01-12 12:24:00,76.8,40.3,18.32,SW,233,8.1,8.1,27,0.00,,,0.00,VWS V14.00,2013-01-12 17:24:00,
2013-01-12 12:29:00,76.8,40.3,18.32,SSW,208,3.6,7.2,27,0.00,,,0.00,VWS V14.00,2013-01-12 17:29:00,
2013-01-12 12:34:00,76.8,41.3,18.32,WSW,241,4.0,4.0,28,0.00,,,0.00,VWS V14.00,2013-01-12 17:34:00,
2013-01-12 12:39:00,77.0,40.5,18.32,WSW,242,3.6,6.3,27,0.00,,,0.00,VWS V14.00,2013-01-12 17:39:00,
2013-01-12 12:44:00,77.0,40.5,18.32,SW,226,9.2,9.2,27,0.00,,,0.00,VWS V14.00,2013-01-12 17:44:00,
2013-01-12 12:49:00,77.5,40.0,18.32,NW,319,4.0,5.8,26,0.00,,,0.00,VWS V14.00,2013-01-12 17:49:00,
2013-01-12 12:55:00,77.5,40.0,18.32,SW,228,4.9,6.3,26,0.00,,,0.00,VWS V14.00,2013-01-12 17:55:00,
2013-01-12 13:00:00,77.9,40.3,18.32,SW,230,3.1,5.8,26,0.00,,,0.00,VWS V14.00,2013-01-12 18:00:00,
2013-01-12 13:05:00,77.5,39.0,18.32,WSW,249,7.6,8.3,25,0.00,,,0.00,VWS V14.00,2013-01-12 18:05:00,
2013-01-12 13:10:00,78.6,40.9,18.32,NNE,32,6.3,6.3,26,0.00,,,0.00,VWS V14.00,2013-01-12 18:10:00,
2013-01-12 13:15:00,78.8,37.9,18.32,WSW,245,5.4,5.4,23,0.00,,,0.00,VWS V14.00,2013-01-12 18:15:00,
2013-01-12 13:20:00,78.8,40.0,18.32,SW,221,2.7,5.8,25,0.00,,,0.00,VWS V14.00,2013-01-12 18:20:00,
2013-01-12 13:25:00,79.0,38.1,18.32,SW,227,3.1,3.1,23,0.00,,,0.00,VWS V14.00,2013-01-12 18:25:00,
2013-01-12 13:30:00,79.2,38.2,18.32,West,268,6.3,6.3,23,0.00,,,0.00,VWS V14.00,2013-01-12 18:30:00,
2013-01-12 13:35:00,79.2,38.2,18.32,West,259,5.4,5.4,23,0.00,,,0.00,VWS V14.00,2013-01-12 18:35:00,
2013-01-12 13:40:00,79.3,38.4,18.32,South,173,8.3,8.3,23,0.00,,,0.00,VWS V14.00,2013-01-12 18:40:00,
2013-01-12 13:45:00,79.2,38.2,18.32,WSW,240,5.4,6.3,23,0.00,,,0.00,VWS V14.00,2013-01-12 18:45:00,
2013-01-12 13:50:00,79.0,38.1,18.32,WSW,254,3.1,4.0,23,0.00,,,0.00,VWS V14.00,2013-01-12 18:50:00,
2013-01-12 13:55:00,78.8,37.9,18.32,West,277,4.9,6.3,23,0.00,,,0.00,VWS V14.00,2013-01-12 18:55:00,
2013-01-12 14:00:00,79.0,38.1,18.32,West,265,2.7,3.1,23,0.00,,,0.00,VWS V14.00,2013-01-12 19:00:00,
2013-01-12 14:05:00,79.0,38.1,18.32,SW,215,8.3,8.7,23,0.00,,,0.00,VWS V14.00,2013-01-12 19:05:00,
2013-01-12 14:10:00,79.9,38.8,18.32,ESE,104,3.1,3.6,23,0.00,,,0.00,VWS V14.00,2013-01-12 19:10:00,
2013-01-12 14:15:00,80.8,39.6,18.32,SW,222,4.9,6.3,23,0.00,,,0.00,VWS V14.00,2013-01-12 19:15:00,
2013-01-12 14:21:00,81.5,39.0,18.32,SSW,197,5.8,7.6,22,0.00,,,0.00,VWS V14.00,2013-01-12 19:21:00,
2013-01-12 14:26:00,83.3,39.3,18.32,SW,218,3.1,6.7,21,0.00,,,0.00,VWS V14.00,2013-01-12 19:26:00,
2013-01-12 14:31:00,88.0,39.2,18.32,South,175,2.7,7.6,18,0.00,,,0.00,VWS V14.00,2013-01-12 19:31:00,
2013-01-12 14:36:00,85.3,38.4,18.32,SSW,200,5.4,6.7,19,0.00,,,0.00,VWS V14.00,2013-01-12 19:36:00,
2013-01-12 14:41:00,86.0,37.6,18.32,SW,231,2.7,3.6,18,0.00,,,0.00,VWS V14.00,2013-01-12 19:41:00,
2013-01-12 14:46:00,84.0,38.7,18.32,SE,127,2.2,2.2,20,0.00,,,0.00,VWS V14.00,2013-01-12 19:46:00,
2013-01-12 14:51:00,83.8,38.5,18.32,SW,218,0.0,0.0,20,0.00,,,0.00,VWS V14.00,2013-01-12 19:51:00,
2013-01-12 14:56:00,82.0,37.0,18.32,WSW,245,4.9,5.8,20,0.00,,,0.00,VWS V14.00,2013-01-12 19:56:00,
2013-01-12 15:01:00,83.3,38.1,18.32,SW,221,3.1,4.0,20,0.00,,,0.00,VWS V14.00,2013-01-12 20:01:00,
2013-01-12 15:06:00,88.2,39.4,18.32,SW,228,3.6,3.6,18,0.00,,,0.00,VWS V14.00,2013-01-12 20:06:00,
2013-01-12 15:11:00,92.1,36.1,18.32,ESE,112,4.0,6.3,14,0.00,,,0.00,VWS V14.00,2013-01-12 20:11:00,
2013-01-12 15:16:00,91.9,36.0,18.32,ESE,119,7.6,7.6,14,0.00,,,0.00,VWS V14.00,2013-01-12 20:16:00,
2013-01-12 15:21:00,91.9,36.0,18.32,SW,222,3.6,4.0,14,0.00,,,0.00,VWS V14.00,2013-01-12 20:21:00,
2013-01-12 15:27:00,87.1,35.5,18.32,SSW,195,0.0,6.3,16,0.00,,,0.00,VWS V14.00,2013-01-12 20:27:00,
2013-01-12 15:32:00,85.1,38.2,18.32,SE,143,3.6,4.0,19,0.00,,,0.00,VWS V14.00,2013-01-12 20:32:00,
2013-01-12 15:37:00,85.3,38.4,18.32,ESE,120,2.7,2.7,19,0.00,,,0.00,VWS V14.00,2013-01-12 20:37:00,
2013-01-12 15:42:00,87.1,38.5,18.32,East,86,2.7,6.3,18,0.00,,,0.00,VWS V14.00,2013-01-12 20:42:00,
2013-01-12 15:47:00,91.4,40.5,18.32,SSW,196,0.0,3.1,17,0.00,,,0.00,VWS V14.00,2013-01-12 20:47:00,
2013-01-12 15:52:00,93.6,37.3,18.32,South,189,3.6,4.0,14,0.00,,,0.00,VWS V14.00,2013-01-12 20:52:00,
2013-01-12 15:57:00,88.5,35.0,18.32,SSE,164,2.2,4.9,15,0.00,,,0.00,VWS V14.00,2013-01-12 20:57:00,
2013-01-12 16:02:00,88.0,39.2,18.32,SSE,162,2.2,3.1,18,0.00,,,0.00,VWS V14.00,2013-01-12 21:02:00,
2013-01-12 16:07:00,89.8,36.0,18.32,South,183,2.2,4.0,15,0.00,,,0.00,VWS V14.00,2013-01-12 21:07:00,
2013-01-12 16:12:00,87.1,35.5,18.32,SSW,199,2.7,3.1,16,0.00,,,0.00,VWS V14.00,2013-01-12 21:12:00,
2013-01-12 16:17:00,85.8,37.5,18.32,South,180,0.0,3.6,18,0.00,,,0.00,VWS V14.00,2013-01-12 21:17:00,
2013-01-12 16:22:00,81.1,36.3,18.32,WSW,245,4.0,4.0,20,0.00,,,0.00,VWS V14.00,2013-01-12 21:22:00,
2013-01-12 16:28:00,80.6,37.1,18.32,SW,220,3.1,6.3,21,0.00,,,0.00,VWS V14.00,2013-01-12 21:28:00,
2013-01-12 16:33:00,80.2,38.0,18.32,SSW,193,0.0,4.9,22,0.00,,,0.00,VWS V14.00,2013-01-12 21:33:00,
2013-01-12 16:38:00,79.9,38.8,18.32,SE,140,2.2,3.1,23,0.00,,,0.00,VWS V14.00,2013-01-12 21:38:00,
2013-01-12 16:43:00,79.7,38.7,18.32,SE,139,2.2,3.1,23,0.00,,,0.00,VWS V14.00,2013-01-12 21:43:00,
2013-01-12 16:48:00,79.5,39.6,18.32,ESE,120,0.0,0.0,24,0.00,,,0.00,VWS V14.00,2013-01-12 21:48:00,
2013-01-12 16:53:00,79.3,39.5,18.32,SSE,150,0.0,0.0,24,0.00,,,0.00,VWS V14.00,2013-01-12 21:53:00,
2013-01-12 16:58:00,79.2,39.3,18.32,South,185,3.1,3.1,24,0.00,,,0.00,VWS V14.00,2013-01-12 21:58:00,
2013-01-12 17:03:00,79.0,39.2,18.32,SSW,209,0.0,2.7,24,0.00,,,0.00,VWS V14.00,2013-01-12 22:03:00,
2013-01-12 17:08:00,78.1,39.4,18.32,SSE,158,0.0,0.0,25,0.00,,,0.00,VWS V14.00,2013-01-12 22:08:00,
2013-01-12 17:13:00,77.4,40.8,18.32,SSE,147,0.0,3.1,27,0.00,,,0.00,VWS V14.00,2013-01-12 22:13:00,
2013-01-12 17:19:00,76.6,42.9,18.32,SSE,148,0.0,0.0,30,0.00,,,0.00,VWS V14.00,2013-01-12 22:19:00,
2013-01-12 17:24:00,75.9,43.1,18.32,SSW,204,0.0,3.1,31,0.00,,,0.00,VWS V14.00,2013-01-12 22:24:00,
2013-01-12 17:29:00,75.2,42.5,18.32,SSE,164,0.0,0.0,31,0.00,,,0.00,VWS V14.00,2013-01-12 22:29:00,
2013-01-12 17:34:00,74.7,42.9,18.32,SSE,164,0.0,0.0,32,0.00,,,0.00,VWS V14.00,2013-01-12 22:34:00,
2013-01-12 17:39:00,74.1,42.4,18.32,SSE,164,0.0,0.0,32,0.00,,,0.00,VWS V14.00,2013-01-12 22:39:00,
2013-01-12 17:44:00,73.4,42.6,18.32,SSE,164,0.0,0.0,33,0.00,,,0.00,VWS V14.00,2013-01-12 22:44:00,
2013-01-12 17:49:00,73.0,43.0,18.32,SSE,164,0.0,0.0,34,0.00,,,0.00,VWS V14.00,2013-01-12 22:49:00,
2013-01-12 17:54:00,72.7,43.5,18.32,SSE,164,0.0,0.0,35,0.00,,,0.00,VWS V14.00,2013-01-12 22:54:00,
2013-01-12 17:59:00,72.1,43.0,18.32,SSE,164,0.0,0.0,35,0.00,,,0.00,VWS V14.00,2013-01-12 22:59:00,
2013-01-12 18:05:00,71.8,43.4,18.32,SSE,164,0.0,0.0,36,0.00,,,0.00,VWS V14.00,2013-01-12 23:05:00,
2013-01-12 18:10:00,71.4,43.8,18.32,SSE,164,0.0,0.0,37,0.00,,,0.00,VWS V14.00,2013-01-12 23:10:00,
2013-01-12 18:15:00,71.1,44.2,18.32,SSE,164,0.0,0.0,38,0.00,,,0.00,VWS V14.00,2013-01-12 23:15:00,
2013-01-12 18:20:00,70.9,44.0,18.32,SSE,164,0.0,0.0,38,0.00,,,0.00,VWS V14.00,2013-01-12 23:20:00,
2013-01-12 18:25:00,70.5,44.4,18.32,SSE,164,0.0,0.0,39,0.00,,,0.00,VWS V14.00,2013-01-12 23:25:00,
2013-01-12 18:30:00,70.3,44.9,18.32,SSE,164,0.0,0.0,40,0.00,,,0.00,VWS V14.00,2013-01-12 23:30:00,
2013-01-12 18:35:00,70.2,44.7,18.32,SSE,164,0.0,0.0,40,0.00,,,0.00,VWS V14.00,2013-01-12 23:35:00,
2013-01-12 18:41:00,69.8,44.4,18.32,SSE,164,0.0,0.0,40,0.00,,,0.00,VWS V14.00,2013-01-12 23:41:00,
2013-01-12 18:46:00,69.6,45.5,18.32,SSE,164,0.0,0.0,42,0.00,,,0.00,VWS V14.00,2013-01-12 23:46:00,
2013-01-12 18:51:00,69.4,46.0,18.32,SSE,164,0.0,0.0,43,0.00,,,0.00,VWS V14.00,2013-01-12 23:51:00,
2013-01-12 18:56:00,69.1,45.7,18.32,SSE,164,0.0,0.0,43,0.00,,,0.00,VWS V14.00,2013-01-12 23:56:00,
2013-01-12 19:01:00,68.9,45.5,18.32,SSE,164,0.0,0.0,43,0.00,,,0.00,VWS V14.00,2013-01-13 00:01:00,
2013-01-12 19:06:00,68.7,46.0,18.32,SSE,162,0.0,0.0,44,0.00,,,0.00,VWS V14.00,2013-01-13 00:06:00,
2013-01-12 19:12:00,68.5,45.8,18.32,SSE,162,0.0,0.0,44,0.00,,,0.00,VWS V14.00,2013-01-13 00:12:00,
2013-01-12 19:17:00,68.5,45.8,18.32,SSE,162,0.0,0.0,44,0.00,,,0.00,VWS V14.00,2013-01-13 00:17:00,
2013-01-12 19:22:00,68.4,45.6,18.32,SSE,162,0.0,0.0,44,0.00,,,0.00,VWS V14.00,2013-01-13 00:22:00,
2013-01-12 19:27:00,68.4,45.6,18.32,SSE,162,0.0,0.0,44,0.00,,,0.00,VWS V14.00,2013-01-13 00:27:00,
2013-01-12 19:32:00,68.2,45.5,18.32,SSE,162,0.0,0.0,44,0.00,,,0.00,VWS V14.00,2013-01-13 00:32:00,
2013-01-12 19:37:00,68.0,45.9,18.32,SSE,162,0.0,0.0,45,0.00,,,0.00,VWS V14.00,2013-01-13 00:37:00,
2013-01-12 19:42:00,68.0,45.9,18.32,SSE,162,0.0,0.0,45,0.00,,,0.00,VWS V14.00,2013-01-13 00:42:00,
2013-01-12 19:48:00,67.8,45.7,18.32,SSE,162,0.0,0.0,45,0.00,,,0.00,VWS V14.00,2013-01-13 00:48:00,
2013-01-12 19:53:00,67.6,46.1,18.32,SSE,162,0.0,0.0,46,0.00,,,0.00,VWS V14.00,2013-01-13 00:53:00,
2013-01-12 19:58:00,67.6,46.1,18.32,SSE,162,0.0,0.0,46,0.00,,,0.00,VWS V14.00,2013-01-13 00:58:00,
2013-01-12 20:03:00,67.5,46.0,18.32,SSE,162,0.0,0.0,46,0.00,,,0.00,VWS V14.00,2013-01-13 01:03:00,
2013-01-12 20:08:00,67.5,46.5,18.32,SSE,162,0.0,0.0,47,0.00,,,0.00,VWS V14.00,2013-01-13 01:08:00,
2013-01-12 20:13:00,67.3,46.4,18.32,SSE,162,0.0,0.0,47,0.00,,,0.00,VWS V14.00,2013-01-13 01:13:00,
2013-01-12 20:18:00,67.1,46.2,18.32,SSE,162,0.0,0.0,47,0.00,,,0.00,VWS V14.00,2013-01-13 01:18:00,
2013-01-12 20:24:00,67.1,46.8,18.32,SSE,162,0.0,0.0,48,0.00,,,0.00,VWS V14.00,2013-01-13 01:24:00,
2013-01-12 20:29:00,66.9,46.6,18.32,SSE,162,0.0,0.0,48,0.00,,,0.00,VWS V14.00,2013-01-13 01:29:00,
2013-01-12 20:34:00,66.7,46.5,18.32,SSE,162,0.0,0.0,48,0.00,,,0.00,VWS V14.00,2013-01-13 01:34:00,
2013-01-12 20:39:00,66.6,46.3,18.32,SSE,162,0.0,0.0,48,0.00,,,0.00,VWS V14.00,2013-01-13 01:39:00,
2013-01-12 20:44:00,66.4,46.7,18.32,SSE,162,0.0,0.0,49,0.00,,,0.00,VWS V14.00,2013-01-13 01:44:00,
2013-01-12 20:49:00,66.2,47.0,18.32,SSE,162,0.0,0.0,50,0.00,,,0.00,VWS V14.00,2013-01-13 01:49:00,
2013-01-12 20:54:00,66.2,47.6,18.32,SSE,162,0.0,0.0,51,0.00,,,0.00,VWS V14.00,2013-01-13 01:54:00,
2013-01-12 20:59:00,66.0,47.9,18.32,SSE,162,0.0,0.0,52,0.00,,,0.00,VWS V14.00,2013-01-13 01:59:00,
2013-01-12 21:04:00,65.8,47.7,18.32,SSE,162,0.0,0.0,52,0.00,,,0.00,VWS V14.00,2013-01-13 02:04:00,
2013-01-12 21:09:00,65.8,48.2,18.32,SSE,166,0.0,0.0,53,0.00,,,0.00,VWS V14.00,2013-01-13 02:09:00,
2013-01-12 21:15:00,65.7,48.1,18.32,SSE,166,0.0,0.0,53,0.00,,,0.00,VWS V14.00,2013-01-13 02:15:00,
2013-01-12 21:20:00,65.7,48.6,18.32,SSE,166,0.0,0.0,54,0.00,,,0.00,VWS V14.00,2013-01-13 02:20:00,
2013-01-12 21:25:00,65.5,48.4,18.32,SSW,209,0.0,0.0,54,0.00,,,0.00,VWS V14.00,2013-01-13 02:25:00,
2013-01-12 21:30:00,65.3,48.2,18.32,SSW,209,0.0,0.0,54,0.00,,,0.00,VWS V14.00,2013-01-13 02:30:00,
2013-01-12 21:35:00,65.3,48.7,18.32,SW,217,0.0,0.0,55,0.00,,,0.00,VWS V14.00,2013-01-13 02:35:00,
2013-01-12 21:40:00,65.1,49.0,18.32,SW,217,0.0,0.0,56,0.00,,,0.00,VWS V14.00,2013-01-13 02:40:00,
2013-01-12 21:46:00,65.1,49.5,18.32,SW,217,0.0,0.0,57,0.00,,,0.00,VWS V14.00,2013-01-13 02:46:00,
2013-01-12 21:51:00,64.9,49.4,18.32,SW,217,0.0,0.0,57,0.00,,,0.00,VWS V14.00,2013-01-13 02:51:00,
2013-01-12 21:56:00,64.8,49.7,18.32,SW,217,0.0,0.0,58,0.00,,,0.00,VWS V14.00,2013-01-13 02:56:00,
2013-01-12 22:01:00,64.8,49.7,18.32,SW,217,0.0,0.0,58,0.00,,,0.00,VWS V14.00,2013-01-13 03:01:00,
2013-01-12 22:06:00,64.8,50.1,18.32,SW,217,0.0,0.0,59,0.00,,,0.00,VWS V14.00,2013-01-13 03:06:00,
2013-01-12 22:11:00,64.8,50.1,18.32,SW,220,2.2,2.2,59,0.00,,,0.00,VWS V14.00,2013-01-13 03:11:00,
2013-01-12 22:16:00,64.8,50.1,18.32,SW,217,0.0,0.0,59,0.00,,,0.00,VWS V14.00,2013-01-13 03:16:00,
2013-01-12 22:21:00,64.9,50.7,18.32,South,181,0.0,4.0,60,0.00,,,0.00,VWS V14.00,2013-01-13 03:21:00,
2013-01-12 22:26:00,64.9,50.3,18.32,SSW,203,0.0,2.2,59,0.00,,,0.00,VWS V14.00,2013-01-13 03:26:00,
2013-01-12 22:31:00,64.8,49.7,18.32,SSW,203,0.0,0.0,58,0.00,,,0.00,VWS V14.00,2013-01-13 03:31:00,
2013-01-12 22:37:00,64.6,50.4,18.32,SSW,198,0.0,2.7,60,0.00,,,0.00,VWS V14.00,2013-01-13 03:37:00,
2013-01-12 22:42:00,64.4,50.2,18.32,SSW,198,0.0,0.0,60,0.00,,,0.00,VWS V14.00,2013-01-13 03:42:00,
2013-01-12 22:47:00,64.2,50.1,18.32,SSW,198,0.0,0.0,60,0.00,,,0.00,VWS V14.00,2013-01-13 03:47:00,
2013-01-12 22:52:00,64.2,50.9,18.32,SSW,206,0.0,0.0,62,0.00,,,0.00,VWS V14.00,2013-01-13 03:52:00,
2013-01-12 22:57:00,64.0,50.3,18.32,SSW,206,0.0,0.0,61,0.00,,,0.00,VWS V14.00,2013-01-13 03:57:00,
2013-01-12 23:02:00,64.0,50.8,18.32,SSW,206,0.0,0.0,62,0.00,,,0.00,VWS V14.00,2013-01-13 04:02:00,
2013-01-12 23:07:00,63.9,51.0,18.32,SSW,206,0.0,0.0,63,0.00,,,0.00,VWS V14.00,2013-01-13 04:07:00,
2013-01-12 23:12:00,63.7,50.9,18.32,SSW,206,0.0,0.0,63,0.00,,,0.00,VWS V14.00,2013-01-13 04:12:00,
2013-01-12 23:17:00,63.9,51.9,18.32,SSW,206,0.0,0.0,65,0.00,,,0.00,VWS V14.00,2013-01-13 04:17:00,
2013-01-12 23:22:00,63.9,51.5,18.32,SSW,206,0.0,0.0,64,0.00,,,0.00,VWS V14.00,2013-01-13 04:22:00,
2013-01-12 23:27:00,63.7,51.3,18.32,South,175,0.0,0.0,64,0.00,,,0.00,VWS V14.00,2013-01-13 04:27:00,
2013-01-12 23:32:00,63.7,51.7,18.32,SE,137,2.2,2.7,65,0.00,,,0.00,VWS V14.00,2013-01-13 04:32:00,
2013-01-12 23:38:00,63.7,52.1,18.32,SSW,192,0.0,0.0,66,0.00,,,0.00,VWS V14.00,2013-01-13 04:38:00,
2013-01-12 23:43:00,63.5,51.5,18.32,SSW,192,0.0,0.0,65,0.00,,,0.00,VWS V14.00,2013-01-13 04:43:00,
2013-01-12 23:48:00,63.5,52.0,18.32,SSW,192,0.0,2.7,66,0.00,,,0.00,VWS V14.00,2013-01-13 04:48:00,
2013-01-12 23:53:00,63.5,52.0,18.32,SSW,192,0.0,0.0,66,0.00,,,0.00,VWS V14.00,2013-01-13 04:53:00,
2013-01-12 23:58:00,63.5,52.0,18.32,South,190,0.0,0.0,66,0.00,,,0.00,VWS V14.00,2013-01-13 04:58:00,